createdAt,value
2023-01-03T00:01:06.902Z,6.41
2023-01-03T00:04:04.834Z,6.33
2023-01-03T00:07:01.626Z,6.43
2023-01-03T00:09:58.445Z,6.21
2023-01-03T00:12:57.293Z,6.48
2023-01-03T00:15:54.037Z,6.45
2023-01-03T00:18:50.775Z,6.45
2023-01-03T00:21:47.951Z,6.43
2023-01-03T00:24:45.817Z,6.42
2023-01-03T00:27:42.570Z,6.31
2023-01-03T00:30:39.346Z,6.32
2023-01-03T00:33:37.945Z,6.40
2023-01-03T00:36:35.620Z,6.10
2023-01-03T00:39:33.532Z,5.93
2023-01-03T00:42:30.330Z,6.16
2023-01-03T00:45:29.875Z,6.09
2023-01-03T00:48:29.735Z,5.81
2023-01-03T00:51:28.645Z,5.76
2023-01-03T00:54:25.565Z,5.76
2023-01-03T00:57:22.318Z,5.80
2023-01-03T01:00:19.091Z,5.92
2023-01-03T01:03:18.060Z,5.79
2023-01-03T01:06:20.602Z,5.80
2023-01-03T01:09:21.875Z,5.72
2023-01-03T01:12:18.626Z,5.63
2023-01-03T01:15:15.391Z,5.65
2023-01-03T01:18:12.160Z,5.63
2023-01-03T01:21:11.738Z,5.54
2023-01-03T01:24:12.794Z,5.67
2023-01-03T01:27:12.596Z,5.70
2023-01-03T01:30:09.470Z,5.78
2023-01-03T01:33:06.228Z,5.59
2023-01-03T01:36:12.140Z,5.79
2023-01-03T01:39:12.321Z,5.81
2023-01-03T01:42:31.532Z,5.76
2023-01-03T01:45:28.332Z,5.81
2023-01-03T01:48:25.144Z,5.75
2023-01-03T01:51:24.406Z,5.74
2023-01-03T01:54:21.425Z,5.66
2023-01-03T01:57:21.601Z,5.78
2023-01-03T02:00:18.412Z,5.79
2023-01-03T02:03:15.279Z,5.82
2023-01-03T02:06:14.383Z,5.89
2023-01-03T02:09:11.373Z,5.90
2023-01-03T02:12:49.836Z,5.90
2023-01-03T02:16:08.100Z,6.11
2023-01-03T02:19:16.745Z,6.04
2023-01-03T02:22:38.086Z,5.99
2023-01-03T02:25:43.507Z,6.14
2023-01-03T02:29:18.287Z,6.07
2023-01-03T02:32:55.361Z,6.06
2023-01-03T02:36:06.978Z,6.02
2023-01-03T02:39:23.875Z,5.98
2023-01-03T02:42:52.810Z,6.05
2023-01-03T02:46:09.664Z,5.96
2023-01-03T02:49:26.673Z,6.00
2023-01-03T02:52:26.636Z,5.78
2023-01-03T02:55:26.371Z,5.82
2023-01-03T02:58:26.714Z,5.76
2023-01-03T03:01:24.581Z,5.73
2023-01-03T03:04:22.153Z,5.76
2023-01-03T03:07:24.432Z,5.80
2023-01-03T03:10:40.709Z,5.85
2023-01-03T03:13:43.934Z,5.74
2023-01-03T03:16:49.300Z,5.68
2023-01-03T03:20:06.870Z,5.66
2023-01-03T03:23:30.418Z,5.63
2023-01-03T03:26:36.596Z,5.58
2023-01-03T03:29:33.544Z,5.48
2023-01-03T03:32:31.893Z,5.46
2023-01-03T03:35:29.078Z,5.47
2023-01-03T03:38:32.150Z,5.22
2023-01-03T03:41:51.107Z,5.24
2023-01-03T03:45:02.472Z,5.23
2023-01-03T03:48:22.507Z,5.09
2023-01-03T03:51:20.077Z,5.14
2023-01-03T03:54:21.080Z,4.96
2023-01-03T03:57:23.917Z,4.87
2023-01-03T04:00:24.653Z,4.61
2023-01-03T04:03:22.352Z,4.71
2023-01-03T04:06:24.473Z,4.69
2023-01-03T04:09:21.242Z,4.27
2023-01-03T04:12:17.993Z,4.36
2023-01-03T04:15:15.327Z,4.10
2023-01-03T04:18:12.086Z,4.20
2023-01-03T04:21:08.826Z,4.13
2023-01-03T04:24:05.857Z,3.88
2023-01-03T04:27:02.605Z,4.18
2023-01-03T04:29:59.362Z,4.13
2023-01-03T04:32:57.215Z,3.84
2023-01-03T04:35:53.971Z,3.82
2023-01-03T04:38:50.711Z,3.84
2023-01-03T04:41:47.451Z,3.77
2023-01-03T04:44:44.211Z,3.87
2023-01-03T04:47:42.052Z,3.86
2023-01-03T04:50:38.815Z,3.71
2023-01-03T04:53:35.566Z,3.50
2023-01-03T04:56:34.726Z,3.38
2023-01-03T04:59:31.471Z,3.54
2023-01-03T05:02:28.329Z,3.56
2023-01-03T05:05:25.105Z,3.57
2023-01-03T05:08:21.869Z,3.52
2023-01-03T05:11:18.932Z,3.73
2023-01-03T05:14:15.721Z,3.65
2023-01-03T05:17:12.466Z,3.62
2023-01-03T05:20:44.820Z,3.78
2023-01-03T05:24:00.159Z,4.04
2023-01-03T05:27:01.333Z,3.83
2023-01-03T05:29:58.074Z,3.98
2023-01-03T05:32:54.910Z,3.68
2023-01-03T05:35:51.664Z,3.89
2023-01-03T05:38:48.430Z,4.02
2023-01-03T05:42:00.469Z,3.99
2023-01-03T05:44:57.360Z,3.96
2023-01-03T05:47:56.900Z,4.11
2023-01-03T05:50:57.286Z,4.00
2023-01-03T05:53:54.059Z,3.84
2023-01-03T05:56:51.270Z,4.00
2023-01-03T05:59:48.178Z,3.77
2023-01-03T06:02:45.069Z,4.01
2023-01-03T06:05:47.829Z,3.77
2023-01-03T06:08:46.742Z,3.92
2023-01-03T06:11:43.531Z,3.76
2023-01-03T06:14:40.310Z,3.72
2023-01-03T06:17:55.203Z,3.70
2023-01-03T06:20:51.929Z,3.78
2023-01-03T06:23:48.934Z,3.83
2023-01-03T06:26:46.067Z,3.95
2023-01-03T06:29:42.867Z,3.96
2023-01-03T06:32:39.614Z,3.84
2023-01-03T06:35:38.558Z,4.03
2023-01-03T06:38:35.909Z,3.93
2023-01-03T06:41:32.734Z,4.03
2023-01-03T06:44:29.484Z,3.70
2023-01-03T06:47:44.887Z,3.89
2023-01-03T06:51:01.303Z,3.85
2023-01-03T06:53:58.080Z,3.77
2023-01-03T06:56:55.231Z,3.88
2023-01-03T06:59:52.025Z,3.80
2023-01-03T07:02:48.984Z,3.92
2023-01-03T07:05:45.951Z,4.10
2023-01-03T07:08:47.902Z,4.14
2023-01-03T07:11:45.293Z,4.06
2023-01-03T07:14:42.066Z,4.15
2023-01-03T07:17:38.863Z,4.19
2023-01-03T07:20:35.628Z,4.31
2023-01-03T07:23:32.410Z,4.33
2023-01-03T07:26:30.957Z,4.42
2023-01-03T07:29:27.728Z,4.43
2023-01-03T07:32:24.786Z,4.40
2023-01-03T07:35:21.580Z,4.26
2023-01-03T07:38:18.359Z,4.23
2023-01-03T07:41:15.955Z,4.33
2023-01-03T07:44:12.835Z,4.39
2023-01-03T07:47:09.597Z,4.55
2023-01-03T07:50:06.650Z,4.49
2023-01-03T07:53:04.613Z,4.37
2023-01-03T07:56:07.712Z,4.34
2023-01-03T07:59:08.668Z,4.49
2023-01-03T08:02:05.569Z,4.49
2023-01-03T08:05:02.516Z,4.57
2023-01-03T08:07:59.435Z,4.51
2023-01-03T08:11:15.105Z,4.56
2023-01-03T08:14:11.880Z,4.72
2023-01-03T08:17:08.957Z,4.78
2023-01-03T08:20:06.483Z,4.74
2023-01-03T08:23:03.302Z,4.64
2023-01-03T08:26:11.228Z,4.79
2023-01-03T08:29:08.474Z,4.67
2023-01-03T08:32:06.224Z,4.71
2023-01-03T08:35:03.327Z,4.66
2023-01-03T08:38:02.200Z,4.64
2023-01-03T08:41:00.429Z,4.76
2023-01-03T08:44:00.259Z,4.83
2023-01-03T08:46:59.823Z,4.82
2023-01-03T08:49:58.016Z,4.94
2023-01-03T08:52:54.911Z,5.00
2023-01-03T08:55:51.648Z,5.15
2023-01-03T08:58:48.401Z,5.04
2023-01-03T09:01:45.482Z,4.97
2023-01-03T09:04:42.344Z,5.05
2023-01-03T09:07:39.092Z,5.00
2023-01-03T09:10:38.656Z,5.01
2023-01-03T09:13:39.115Z,4.97
2023-01-03T09:16:35.971Z,5.22
2023-01-03T09:19:32.756Z,5.13
2023-01-03T09:22:29.501Z,5.01
2023-01-03T09:25:27.609Z,5.06
2023-01-03T09:28:27.406Z,5.09
2023-01-03T09:31:24.189Z,5.11
2023-01-03T09:34:20.992Z,5.09
2023-01-03T09:37:17.743Z,5.11
2023-01-03T09:40:14.580Z,5.12
2023-01-03T09:43:23.024Z,5.39
2023-01-03T09:46:24.489Z,5.47
2023-01-03T09:49:21.391Z,5.29
2023-01-03T09:52:38.283Z,5.40
2023-01-03T09:56:04.673Z,5.54
2023-01-03T09:59:29.180Z,5.51
2023-01-03T10:02:50.131Z,5.43
2023-01-03T10:06:05.276Z,5.36
2023-01-03T10:09:32.678Z,5.49
2023-01-03T10:12:47.324Z,5.38
2023-01-03T10:16:21.699Z,5.30
2023-01-03T10:19:46.285Z,5.72
2023-01-03T10:22:45.397Z,5.74
2023-01-03T10:25:45.239Z,5.48
2023-01-03T10:28:45.203Z,5.46
2023-01-03T10:32:11.511Z,5.37
2023-01-03T10:35:19.199Z,5.54
2023-01-03T10:38:16.869Z,5.58
2023-01-03T10:41:41.475Z,5.64
2023-01-03T10:44:38.236Z,5.74
2023-01-03T10:47:34.985Z,5.29
2023-01-03T10:50:37.374Z,5.29
2023-01-03T10:53:39.693Z,5.36
2023-01-03T10:56:36.531Z,5.30
2023-01-03T10:59:33.509Z,5.42
2023-01-03T11:02:30.470Z,5.49
2023-01-03T11:05:27.862Z,5.45
2023-01-03T11:08:34.948Z,5.61
2023-01-03T11:11:36.950Z,5.42
2023-01-03T11:14:33.757Z,5.18
2023-01-03T11:17:30.546Z,5.47
2023-01-03T11:20:53.920Z,5.48
2023-01-03T11:24:23.224Z,5.61
2023-01-03T11:27:38.112Z,5.59
2023-01-03T11:31:09.319Z,5.89
2023-01-03T11:34:13.915Z,6.15
2023-01-03T11:37:17.501Z,6.02
2023-01-03T11:40:35.417Z,6.27
2023-01-03T11:43:53.657Z,6.34
2023-01-03T11:47:16.031Z,6.60
2023-01-03T11:50:33.100Z,6.74
2023-01-03T11:54:01.437Z,6.90
2023-01-03T11:57:03.257Z,6.71
2023-01-03T12:00:15.493Z,6.34
2023-01-03T12:03:21.280Z,6.62
2023-01-03T12:06:28.340Z,6.38
2023-01-03T12:09:34.715Z,6.14
2023-01-03T12:12:59.568Z,6.31
2023-01-03T12:16:03.198Z,6.09
2023-01-03T12:19:16.442Z,6.28
2023-01-03T12:22:35.135Z,6.38
2023-01-03T12:25:36.911Z,6.19
2023-01-03T12:28:40.985Z,6.10
2023-01-03T12:31:51.439Z,6.14
2023-01-03T12:35:10.488Z,6.44
2023-01-03T12:38:10.618Z,6.55
2023-01-03T12:41:33.935Z,6.47
2023-01-03T12:44:43.370Z,6.46
2023-01-03T12:48:09.540Z,6.42
2023-01-03T12:51:06.641Z,6.59
2023-01-03T12:54:21.443Z,6.59
2023-01-03T12:57:45.208Z,6.76
2023-01-03T13:01:28.835Z,6.41
2023-01-03T13:04:28.356Z,6.37
2023-01-03T13:07:28.220Z,6.32
2023-01-03T13:10:28.328Z,6.31
2023-01-03T13:13:25.232Z,6.51
2023-01-03T13:16:34.159Z,6.23
2023-01-03T13:19:37.099Z,6.17
2023-01-03T13:22:45.477Z,6.08
2023-01-03T13:25:44.109Z,6.18
2023-01-03T13:28:40.899Z,6.05
2023-01-03T13:31:39.271Z,6.24
2023-01-03T13:34:36.176Z,6.19
2023-01-03T13:37:51.155Z,6.18
2023-01-03T13:41:17.187Z,6.04
2023-01-03T13:44:09.532Z,6.02
2023-01-03T13:47:06.672Z,6.13
2023-01-03T13:50:03.631Z,6.21
2023-01-03T13:53:26.173Z,6.26
2023-01-03T13:56:25.507Z,6.16
2023-01-03T13:59:36.055Z,6.01
2023-01-03T14:02:44.745Z,5.97
2023-01-03T14:06:00.293Z,5.72
2023-01-03T14:09:22.016Z,5.86
2023-01-03T14:12:18.880Z,5.94
2023-01-03T14:15:25.902Z,6.15
2023-01-03T14:18:28.618Z,6.13
2023-01-03T14:21:31.067Z,5.85
2023-01-03T14:24:29.824Z,5.77
2023-01-03T14:27:33.079Z,6.03
2023-01-03T14:30:31.709Z,6.02
2023-01-03T14:33:39.579Z,5.71
2023-01-03T14:36:46.116Z,5.49
2023-01-03T14:39:56.484Z,5.73
2023-01-03T14:42:53.276Z,5.51
2023-01-03T14:45:54.121Z,5.65
2023-01-03T14:48:50.864Z,5.77
2023-01-03T14:51:47.906Z,5.38
2023-01-03T14:54:47.171Z,5.70
2023-01-03T14:57:45.894Z,5.64
2023-01-03T15:00:42.782Z,5.36
2023-01-03T15:03:42.502Z,5.72
2023-01-03T15:06:39.406Z,5.49
2023-01-03T15:09:36.373Z,5.51
2023-01-03T15:12:36.677Z,5.40
2023-01-03T15:15:39.517Z,5.54
2023-01-03T15:18:39.847Z,5.37
2023-01-03T15:21:36.595Z,5.40
2023-01-03T15:24:43.243Z,5.49
2023-01-03T15:27:41.990Z,5.42
2023-01-03T15:30:48.993Z,5.35
2023-01-03T15:34:11.735Z,5.38
2023-01-03T15:37:22.213Z,5.43
2023-01-03T15:40:18.977Z,5.27
2023-01-03T15:43:22.050Z,5.14
2023-01-03T15:46:20.144Z,5.13
2023-01-03T15:49:21.340Z,5.20
2023-01-03T15:52:18.137Z,5.38
2023-01-03T15:55:16.231Z,5.28
2023-01-03T15:58:13.026Z,5.25
2023-01-03T16:01:10.258Z,5.21
2023-01-03T16:04:07.127Z,5.38
2023-01-03T16:07:03.923Z,5.29
2023-01-03T16:10:00.706Z,5.26
2023-01-03T16:12:57.460Z,5.32
2023-01-03T16:15:55.624Z,5.16
2023-01-03T16:18:52.699Z,5.34
2023-01-03T16:22:24.474Z,5.49
2023-01-03T16:25:13.914Z,5.48
2023-01-03T16:28:12.616Z,5.46
2023-01-03T16:31:16.359Z,5.59
2023-01-03T16:34:19.618Z,5.60
2023-01-03T16:37:19.227Z,5.43
2023-01-03T16:40:18.501Z,5.38
2023-01-03T16:43:15.261Z,5.17
2023-01-03T16:46:12.466Z,5.12
2023-01-03T16:49:15.794Z,5.02
2023-01-03T16:52:20.022Z,5.09
2023-01-03T16:55:20.057Z,5.30
2023-01-03T16:58:17.683Z,5.27
2023-01-03T17:01:14.628Z,5.18
2023-01-03T17:04:11.861Z,5.26
2023-01-03T17:07:26.911Z,5.08
2023-01-03T17:10:33.382Z,5.14
2023-01-03T17:13:48.375Z,5.11
2023-01-03T17:16:45.843Z,5.11
2023-01-03T17:20:03.239Z,5.02
2023-01-03T17:23:00.231Z,5.21
2023-01-03T17:25:56.975Z,5.09
2023-01-03T17:28:54.993Z,5.23
2023-01-03T17:31:51.797Z,5.01
2023-01-03T17:34:48.732Z,4.99
2023-01-03T17:38:23.254Z,5.06
2023-01-03T17:41:02.825Z,4.84
2023-01-03T17:43:59.589Z,4.73
2023-01-03T17:47:41.800Z,4.87
2023-01-03T17:50:38.573Z,4.67
2023-01-03T17:53:35.616Z,4.70
2023-01-03T17:56:32.468Z,4.45
2023-01-03T17:59:29.357Z,4.49
2023-01-03T18:02:27.507Z,4.72
2023-01-03T18:05:28.780Z,4.62
2023-01-03T18:08:26.099Z,4.61
2023-01-03T18:11:25.985Z,4.59
2023-01-03T18:14:22.915Z,4.62
2023-01-03T18:17:37.764Z,4.71
2023-01-03T18:20:34.544Z,4.67
2023-01-03T18:23:33.647Z,4.77
2023-01-03T18:26:39.293Z,4.69
2023-01-03T18:29:36.119Z,4.64
2023-01-03T18:32:34.410Z,4.64
2023-01-03T18:35:37.439Z,4.57
2023-01-03T18:38:41.305Z,4.64
2023-01-03T18:41:38.175Z,4.44
2023-01-03T18:44:35.021Z,4.44
2023-01-03T18:47:32.195Z,4.47
2023-01-03T18:50:28.990Z,4.41
2023-01-03T18:53:28.714Z,4.40
2023-01-03T18:56:30.081Z,4.49
2023-01-03T18:59:27.454Z,4.46
2023-01-03T19:02:24.465Z,4.37
2023-01-03T19:05:21.877Z,4.72
2023-01-03T19:08:19.775Z,4.47
2023-01-03T19:11:25.079Z,4.59
2023-01-03T19:14:22.060Z,4.57
2023-01-03T19:17:19.740Z,4.63
2023-01-03T19:20:18.642Z,4.59
2023-01-03T19:23:22.604Z,4.56
2023-01-03T19:26:44.840Z,4.57
2023-01-03T19:29:41.793Z,4.62
2023-01-03T19:32:39.301Z,4.64
2023-01-03T19:35:36.069Z,4.76
2023-01-03T19:38:32.859Z,4.63
2023-01-03T19:41:30.292Z,4.66
2023-01-03T19:44:27.069Z,4.60
2023-01-03T19:47:24.298Z,4.62
2023-01-03T19:50:28.301Z,4.57
2023-01-03T19:53:25.050Z,4.67
2023-01-03T19:56:23.348Z,4.70
2023-01-03T19:59:25.044Z,4.65
2023-01-03T20:02:35.164Z,4.67
2023-01-03T20:05:36.903Z,4.69
2023-01-03T20:08:33.706Z,4.58
2023-01-03T20:11:30.457Z,4.55
2023-01-03T20:14:28.856Z,4.63
2023-01-03T20:17:26.726Z,4.70
2023-01-03T20:20:25.361Z,4.62
2023-01-03T20:23:22.429Z,4.55
2023-01-03T20:26:25.182Z,4.54
2023-01-03T20:29:22.191Z,4.41
2023-01-03T20:32:18.941Z,4.36
2023-01-03T20:38:34.293Z,4.65
2023-01-03T20:41:37.432Z,4.68
2023-01-03T20:44:34.278Z,4.65
2023-01-03T20:47:31.076Z,4.63
2023-01-03T20:50:29.113Z,4.59
2023-01-03T20:53:26.790Z,4.37
2023-01-03T20:56:25.613Z,4.41
2023-01-03T20:59:24.351Z,4.45
2023-01-03T21:02:21.238Z,4.44
2023-01-03T21:05:18.811Z,4.44
2023-01-03T21:08:34.947Z,4.52
2023-01-03T21:11:35.753Z,4.55
2023-01-03T21:14:32.542Z,4.41
2023-01-03T21:17:29.321Z,4.34
2023-01-03T21:20:28.111Z,4.29
2023-01-03T21:23:25.597Z,4.32
2023-01-03T21:26:22.654Z,4.29
2023-01-03T21:29:19.441Z,4.18
2023-01-03T21:32:16.273Z,4.23
2023-01-03T21:35:14.972Z,4.20
2023-01-03T21:38:12.483Z,4.17
2023-01-03T21:41:17.357Z,4.18
2023-01-03T21:44:14.138Z,4.14
2023-01-03T21:47:10.886Z,4.10
2023-01-03T21:50:08.507Z,4.10
2023-01-03T21:53:05.913Z,4.18
2023-01-03T21:56:07.964Z,4.09
2023-01-03T21:59:04.746Z,3.94
2023-01-03T22:02:20.107Z,3.94
2023-01-03T22:05:17.052Z,3.76
2023-01-03T22:08:13.935Z,3.90
2023-01-03T22:11:12.235Z,3.73
2023-01-03T22:14:09.090Z,3.51
2023-01-03T22:17:06.087Z,3.64
2023-01-03T22:20:06.347Z,3.64
2023-01-03T22:23:03.226Z,3.74
2023-01-03T22:26:05.224Z,3.71
2023-01-03T22:29:02.034Z,3.79
2023-01-03T22:31:58.862Z,3.86
2023-01-03T22:34:55.999Z,3.91
2023-01-03T22:37:55.734Z,3.98
2023-01-03T22:40:52.503Z,3.78
2023-01-03T22:43:51.908Z,3.80
2023-01-03T22:46:48.682Z,3.77
2023-01-03T22:49:45.496Z,3.74
2023-01-03T22:52:42.272Z,3.57
2023-01-03T22:55:42.445Z,3.77
2023-01-03T22:58:39.232Z,3.50
2023-01-03T23:01:37.263Z,3.69
2023-01-03T23:04:34.240Z,3.62
2023-01-03T23:07:31.009Z,3.54
2023-01-03T23:10:27.762Z,3.72
2023-01-03T23:13:24.521Z,3.66
2023-01-03T23:16:21.419Z,3.60
2023-01-03T23:19:20.892Z,3.58
2023-01-03T23:22:17.656Z,3.51
2023-01-03T23:25:14.999Z,3.66
2023-01-03T23:28:11.761Z,3.37
2023-01-03T23:31:08.551Z,3.42
2023-01-03T23:34:05.454Z,3.45
2023-01-03T23:37:02.229Z,3.40
2023-01-03T23:39:58.992Z,3.57
2023-01-03T23:42:55.734Z,3.69
2023-01-03T23:45:52.510Z,3.61
2023-01-03T23:48:55.132Z,3.70
2023-01-03T23:51:51.913Z,3.82
2023-01-03T23:54:50.169Z,3.84
2023-01-03T23:57:50.284Z,3.84
